sensor_id;sensor_type;location;lat;lon;timestamp;pressure;altitude;pressure_sealevel;temperature;humidity
69911;BME280;63555;49.920;17.868;2023-03-11T00:03:27;96158.69;;;7.23;68.29
69911;BME280;63555;49.920;17.868;2023-03-11T00:08:28;96157.38;;;7.19;68.28
69911;BME280;63555;49.920;17.868;2023-03-11T00:13:28;96158.19;;;7.20;68.21
69911;BME280;63555;49.920;17.868;2023-03-11T00:18:29;96150.63;;;7.17;68.01
69911;BME280;63555;49.920;17.868;2023-03-11T00:23:30;96148.84;;;7.17;68.14
69911;BME280;63555;49.920;17.868;2023-03-11T00:28:31;96155.91;;;7.25;67.88
69911;BME280;63555;49.920;17.868;2023-03-11T00:33:32;96155.94;;;7.33;68.46
69911;BME280;63555;49.920;17.868;2023-03-11T00:38:32;96161.00;;;7.34;68.52
69911;BME280;63555;49.920;17.868;2023-03-11T00:43:32;96159.22;;;7.35;68.20
69911;BME280;63555;49.920;17.868;2023-03-11T00:48:33;96158.72;;;7.40;68.19
69911;BME280;63555;49.920;17.868;2023-03-11T00:53:33;96156.09;;;7.40;67.84
69911;BME280;63555;49.920;17.868;2023-03-11T00:58:34;96154.47;;;7.39;67.94
69911;BME280;63555;49.920;17.868;2023-03-11T01:03:35;96166.91;;;7.37;67.86
69911;BME280;63555;49.920;17.868;2023-03-11T01:08:36;96174.44;;;7.31;67.35
69911;BME280;63555;49.920;17.868;2023-03-11T01:13:37;96168.84;;;7.26;67.08
69911;BME280;63555;49.920;17.868;2023-03-11T01:18:39;96180.78;;;7.21;66.04
69911;BME280;63555;49.920;17.868;2023-03-11T01:23:40;96182.41;;;7.14;65.94
69911;BME280;63555;49.920;17.868;2023-03-11T01:28:40;96183.03;;;7.08;66.04
69911;BME280;63555;49.920;17.868;2023-03-11T01:33:41;96177.59;;;7.01;65.59
69911;BME280;63555;49.920;17.868;2023-03-11T01:38:41;96173.28;;;6.92;65.19
69911;BME280;63555;49.920;17.868;2023-03-11T01:48:47;96178.44;;;6.76;65.84
69911;BME280;63555;49.920;17.868;2023-03-11T01:53:48;96186.25;;;6.67;65.64
69911;BME280;63555;49.920;17.868;2023-03-11T01:58:49;96177.53;;;6.59;64.92
69911;BME280;63555;49.920;17.868;2023-03-11T02:03:52;96193.03;;;6.52;65.35
69911;BME280;63555;49.920;17.868;2023-03-11T02:08:53;96195.44;;;6.46;65.40
69911;BME280;63555;49.920;17.868;2023-03-11T02:13:55;96188.81;;;6.33;64.83
69911;BME280;63555;49.920;17.868;2023-03-11T02:18:59;96193.47;;;6.22;65.90
69911;BME280;63555;49.920;17.868;2023-03-11T02:24:11;96191.53;;;6.06;65.54
69911;BME280;63555;49.920;17.868;2023-03-11T02:29:13;96205.66;;;5.95;65.67
69911;BME280;63555;49.920;17.868;2023-03-11T02:34:20;96203.69;;;5.80;66.43
69911;BME280;63555;49.920;17.868;2023-03-11T02:39:33;96198.59;;;5.60;67.62
69911;BME280;63555;49.920;17.868;2023-03-11T02:44:34;96196.50;;;5.46;67.82
69911;BME280;63555;49.920;17.868;2023-03-11T02:49:35;96200.63;;;5.21;68.59
69911;BME280;63555;49.920;17.868;2023-03-11T02:54:36;96198.28;;;4.91;69.43
69911;BME280;63555;49.920;17.868;2023-03-11T02:59:36;96194.66;;;4.64;70.33
69911;BME280;63555;49.920;17.868;2023-03-11T03:04:36;96189.91;;;4.50;70.79
69911;BME280;63555;49.920;17.868;2023-03-11T03:09:37;96193.38;;;4.41;71.23
69911;BME280;63555;49.920;17.868;2023-03-11T03:14:37;96181.72;;;4.35;71.61
69911;BME280;63555;49.920;17.868;2023-03-11T03:19:38;96190.06;;;4.29;71.96
69911;BME280;63555;49.920;17.868;2023-03-11T03:24:38;96189.41;;;4.18;72.50
69911;BME280;63555;49.920;17.868;2023-03-11T03:29:39;96180.78;;;4.07;72.76
69911;BME280;63555;49.920;17.868;2023-03-11T03:34:39;96188.47;;;3.90;74.72
69911;BME280;63555;49.920;17.868;2023-03-11T03:39:39;96186.56;;;3.63;75.13
69911;BME280;63555;49.920;17.868;2023-03-11T03:44:40;96176.09;;;3.43;75.66
69911;BME280;63555;49.920;17.868;2023-03-11T03:49:40;96182.25;;;3.33;75.67
69911;BME280;63555;49.920;17.868;2023-03-11T03:54:41;96184.44;;;3.28;75.34
69911;BME280;63555;49.920;17.868;2023-03-11T03:59:41;96200.47;;;3.23;75.57
69911;BME280;63555;49.920;17.868;2023-03-11T04:04:41;96197.69;;;3.15;75.34
69911;BME280;63555;49.920;17.868;2023-03-11T04:09:43;96202.06;;;3.05;74.91
69911;BME280;63555;49.920;17.868;2023-03-11T04:14:43;96208.63;;;2.99;75.03
69911;BME280;63555;49.920;17.868;2023-03-11T04:19:44;96221.19;;;2.94;74.81
69911;BME280;63555;49.920;17.868;2023-03-11T04:24:44;96225.84;;;2.91;75.29
69911;BME280;63555;49.920;17.868;2023-03-11T04:29:45;96234.47;;;2.91;74.88
69911;BME280;63555;49.920;17.868;2023-03-11T04:34:45;96238.84;;;2.91;74.37
69911;BME280;63555;49.920;17.868;2023-03-11T04:39:45;96242.41;;;2.90;74.28
69911;BME280;63555;49.920;17.868;2023-03-11T04:44:46;96245.31;;;2.96;74.36
69911;BME280;63555;49.920;17.868;2023-03-11T04:49:46;96241.75;;;2.97;73.64
69911;BME280;63555;49.920;17.868;2023-03-11T04:54:46;96229.97;;;2.93;73.21
69911;BME280;63555;49.920;17.868;2023-03-11T04:59:47;96247.38;;;2.93;72.68
69911;BME280;63555;49.920;17.868;2023-03-11T05:04:47;96258.19;;;2.98;71.97
69911;BME280;63555;49.920;17.868;2023-03-11T05:09:48;96254.38;;;3.02;72.37
69911;BME280;63555;49.920;17.868;2023-03-11T05:14:48;96266.06;;;3.07;71.54
69911;BME280;63555;49.920;17.868;2023-03-11T05:19:48;96277.16;;;3.09;71.52
69911;BME280;63555;49.920;17.868;2023-03-11T05:24:49;96279.19;;;3.06;71.52
69911;BME280;63555;49.920;17.868;2023-03-11T05:29:49;96283.44;;;3.07;72.11
69911;BME280;63555;49.920;17.868;2023-03-11T05:34:50;96288.09;;;3.03;71.14
69911;BME280;63555;49.920;17.868;2023-03-11T05:39:51;96291.38;;;3.05;71.73
69911;BME280;63555;49.920;17.868;2023-03-11T05:44:52;96295.25;;;3.11;71.42
69911;BME280;63555;49.920;17.868;2023-03-11T05:49:52;96303.38;;;3.17;70.90
69911;BME280;63555;49.920;17.868;2023-03-11T05:54:52;96318.03;;;3.18;70.64
69911;BME280;63555;49.920;17.868;2023-03-11T05:59:53;96310.91;;;3.20;69.98
69911;BME280;63555;49.920;17.868;2023-03-11T06:04:53;96328.84;;;3.14;69.60
69911;BME280;63555;49.920;17.868;2023-03-11T06:09:53;96330.88;;;3.10;70.31
69911;BME280;63555;49.920;17.868;2023-03-11T06:14:54;96342.56;;;3.16;69.44
69911;BME280;63555;49.920;17.868;2023-03-11T06:19:54;96356.00;;;3.21;69.46
69911;BME280;63555;49.920;17.868;2023-03-11T06:24:54;96356.69;;;3.23;69.28
69911;BME280;63555;49.920;17.868;2023-03-11T06:29:55;96361.88;;;3.13;70.37
69911;BME280;63555;49.920;17.868;2023-03-11T06:34:55;96371.84;;;3.08;69.56
69911;BME280;63555;49.920;17.868;2023-03-11T06:39:55;96383.78;;;3.11;69.77
69911;BME280;63555;49.920;17.868;2023-03-11T06:44:56;96385.28;;;3.13;70.54
69911;BME280;63555;49.920;17.868;2023-03-11T06:49:56;96386.56;;;3.19;69.67
69911;BME280;63555;49.920;17.868;2023-03-11T06:54:57;96404.28;;;3.25;69.87
69911;BME280;63555;49.920;17.868;2023-03-11T06:59:57;96417.28;;;3.25;68.96
69911;BME280;63555;49.920;17.868;2023-03-11T07:04:57;96417.16;;;3.27;69.77
69911;BME280;63555;49.920;17.868;2023-03-11T07:09:58;96427.25;;;3.41;69.62
69911;BME280;63555;49.920;17.868;2023-03-11T07:14:59;96435.72;;;3.54;69.24
69911;BME280;63555;49.920;17.868;2023-03-11T07:19:59;96446.63;;;3.69;69.09
69911;BME280;63555;49.920;17.868;2023-03-11T07:24:59;96455.06;;;3.92;69.14
69911;BME280;63555;49.920;17.868;2023-03-11T07:30:00;96455.00;;;4.12;68.58
69911;BME280;63555;49.920;17.868;2023-03-11T07:35:01;96463.53;;;4.24;68.44
69911;BME280;63555;49.920;17.868;2023-03-11T07:40:01;96482.94;;;4.31;67.62
69911;BME280;63555;49.920;17.868;2023-03-11T07:45:02;96494.16;;;4.22;67.73
69911;BME280;63555;49.920;17.868;2023-03-11T07:50:02;96495.22;;;4.10;68.00
69911;BME280;63555;49.920;17.868;2023-03-11T07:55:03;96521.13;;;4.02;68.60
69911;BME280;63555;49.920;17.868;2023-03-11T08:00:04;96517.69;;;4.01;68.23
69911;BME280;63555;49.920;17.868;2023-03-11T08:05:05;96545.16;;;4.05;68.42
69911;BME280;63555;49.920;17.868;2023-03-11T08:10:06;96549.03;;;4.11;68.62
69911;BME280;63555;49.920;17.868;2023-03-11T08:15:07;96560.03;;;4.14;68.57
69911;BME280;63555;49.920;17.868;2023-03-11T08:20:08;96569.94;;;4.21;68.41
69911;BME280;63555;49.920;17.868;2023-03-11T08:25:09;96589.31;;;4.28;68.39
69911;BME280;63555;49.920;17.868;2023-03-11T08:30:10;96591.44;;;4.34;68.67
69911;BME280;63555;49.920;17.868;2023-03-11T08:35:11;96617.44;;;4.45;68.65
69911;BME280;63555;49.920;17.868;2023-03-11T08:40:11;96615.69;;;4.55;68.38
69911;BME280;63555;49.920;17.868;2023-03-11T08:45:12;96612.25;;;4.55;68.37
69911;BME280;63555;49.920;17.868;2023-03-11T08:50:17;96636.16;;;4.50;68.13
69911;BME280;63555;49.920;17.868;2023-03-11T08:55:19;96658.53;;;4.53;68.15
69911;BME280;63555;49.920;17.868;2023-03-11T09:00:24;96674.97;;;4.43;67.38
69911;BME280;63555;49.920;17.868;2023-03-11T09:05:24;96683.69;;;4.33;67.91
69911;BME280;63555;49.920;17.868;2023-03-11T09:10:25;96696.97;;;4.30;67.93
69911;BME280;63555;49.920;17.868;2023-03-11T09:15:25;96716.19;;;4.29;67.79
69911;BME280;63555;49.920;17.868;2023-03-11T09:20:25;96722.06;;;4.21;67.90
69911;BME280;63555;49.920;17.868;2023-03-11T09:25:26;96738.09;;;4.16;68.17
69911;BME280;63555;49.920;17.868;2023-03-11T09:30:26;96767.28;;;4.10;66.82
69911;BME280;63555;49.920;17.868;2023-03-11T09:35:28;96765.72;;;3.87;66.55
69911;BME280;63555;49.920;17.868;2023-03-11T09:40:42;96787.19;;;3.79;65.98
69911;BME280;63555;49.920;17.868;2023-03-11T09:46:01;96788.22;;;3.88;65.28
69911;BME280;63555;49.920;17.868;2023-03-11T09:51:21;96824.09;;;3.96;64.22
69911;BME280;63555;49.920;17.868;2023-03-11T09:56:26;96843.78;;;4.00;64.36
69911;BME280;63555;49.920;17.868;2023-03-11T10:01:31;96842.59;;;3.93;64.68
69911;BME280;63555;49.920;17.868;2023-03-11T10:06:32;96865.97;;;3.83;64.59
69911;BME280;63555;49.920;17.868;2023-03-11T10:28:14;96915.00;;;3.44;66.13
69911;BME280;63555;49.920;17.868;2023-03-11T10:33:30;96934.41;;;3.40;66.88
69911;BME280;63555;49.920;17.868;2023-03-11T10:38:45;96949.22;;;3.29;67.00
69911;BME280;63555;49.920;17.868;2023-03-11T10:43:53;96965.72;;;3.05;68.33
69911;BME280;63555;49.920;17.868;2023-03-11T10:48:56;96984.84;;;2.93;68.99
69911;BME280;63555;49.920;17.868;2023-03-11T10:53:58;97000.47;;;2.93;68.12
69911;BME280;63555;49.920;17.868;2023-03-11T10:59:00;97010.78;;;2.95;67.54
69911;BME280;63555;49.920;17.868;2023-03-11T11:04:02;97019.41;;;2.95;67.54
69911;BME280;63555;49.920;17.868;2023-03-11T11:09:21;97039.06;;;2.99;66.85
69911;BME280;63555;49.920;17.868;2023-03-11T11:14:22;97039.47;;;3.06;67.05
69911;BME280;63555;49.920;17.868;2023-03-11T11:19:22;97048.97;;;3.18;66.11
69911;BME280;63555;49.920;17.868;2023-03-11T11:24:25;97055.50;;;3.24;65.05
69911;BME280;63555;49.920;17.868;2023-03-11T11:29:26;97062.84;;;3.18;64.85
69911;BME280;63555;49.920;17.868;2023-03-11T11:34:30;97073.34;;;3.17;64.00
69911;BME280;63555;49.920;17.868;2023-03-11T11:39:43;97098.56;;;3.16;63.75
69911;BME280;63555;49.920;17.868;2023-03-11T11:44:53;97104.72;;;3.15;62.72
69911;BME280;63555;49.920;17.868;2023-03-11T11:50:00;97115.53;;;3.22;62.23
69911;BME280;63555;49.920;17.868;2023-03-11T11:55:04;97124.19;;;3.23;62.23
69911;BME280;63555;49.920;17.868;2023-03-11T12:15:35;97151.84;;;3.36;60.30
69911;BME280;63555;49.920;17.868;2023-03-11T12:20:44;97154.72;;;3.44;60.76
69911;BME280;63555;49.920;17.868;2023-03-11T12:26:20;97156.72;;;3.65;60.76
69911;BME280;63555;49.920;17.868;2023-03-11T12:31:23;97167.78;;;3.79;60.85
69911;BME280;63555;49.920;17.868;2023-03-11T12:36:32;97169.69;;;3.77;60.34
69911;BME280;63555;49.920;17.868;2023-03-11T12:41:38;97184.00;;;3.72;59.24
69911;BME280;63555;49.920;17.868;2023-03-11T13:13:01;97238.78;;;3.59;57.36
69911;BME280;63555;49.920;17.868;2023-03-11T13:18:26;97262.66;;;3.90;57.98
69911;BME280;63555;49.920;17.868;2023-03-11T13:23:36;97268.13;;;3.98;57.42
69911;BME280;63555;49.920;17.868;2023-03-11T13:40:05;97321.53;;;3.06;62.13
69911;BME280;63555;49.920;17.868;2023-03-11T13:45:07;97329.34;;;2.94;63.18
69911;BME280;63555;49.920;17.868;2023-03-11T13:50:23;97336.72;;;3.12;64.10
69911;BME280;63555;49.920;17.868;2023-03-11T13:55:35;97351.91;;;3.57;63.62
69911;BME280;63555;49.920;17.868;2023-03-11T14:00:46;97351.81;;;3.95;62.69
69911;BME280;63555;49.920;17.868;2023-03-11T14:05:49;97363.50;;;3.89;62.57
69911;BME280;63555;49.920;17.868;2023-03-11T14:10:58;97368.47;;;3.68;62.58
69911;BME280;63555;49.920;17.868;2023-03-11T14:16:06;97374.13;;;3.49;63.31
69911;BME280;63555;49.920;17.868;2023-03-11T14:21:21;97384.53;;;3.37;63.34
69911;BME280;63555;49.920;17.868;2023-03-11T14:26:31;97396.94;;;3.33;63.28
69911;BME280;63555;49.920;17.868;2023-03-11T14:31:36;97413.09;;;3.38;63.69
69911;BME280;63555;49.920;17.868;2023-03-11T14:36:48;97408.09;;;3.35;63.22
69911;BME280;63555;49.920;17.868;2023-03-11T14:52:30;97432.81;;;3.55;62.36
69911;BME280;63555;49.920;17.868;2023-03-11T14:57:54;97437.59;;;3.36;62.16
69911;BME280;63555;49.920;17.868;2023-03-11T15:03:03;97458.09;;;3.28;61.48
69911;BME280;63555;49.920;17.868;2023-03-11T15:08:11;97460.41;;;3.19;59.98
69911;BME280;63555;49.920;17.868;2023-03-11T15:13:14;97470.41;;;3.26;60.08
69911;BME280;63555;49.920;17.868;2023-03-11T15:18:23;97476.25;;;3.29;59.42
69911;BME280;63555;49.920;17.868;2023-03-11T15:23:24;97501.16;;;3.33;59.19
69911;BME280;63555;49.920;17.868;2023-03-11T15:28:29;97524.47;;;3.22;58.22
69911;BME280;63555;49.920;17.868;2023-03-11T15:33:32;97550.22;;;2.87;60.30
69911;BME280;63555;49.920;17.868;2023-03-11T15:38:32;97552.06;;;2.44;61.46
69911;BME280;63555;49.920;17.868;2023-03-11T15:43:42;97547.81;;;2.14;61.82
69911;BME280;63555;49.920;17.868;2023-03-11T15:48:44;97556.81;;;2.09;62.30
69911;BME280;63555;49.920;17.868;2023-03-11T15:53:44;97557.66;;;2.09;61.70
69911;BME280;63555;49.920;17.868;2023-03-11T15:58:44;97565.28;;;2.12;61.16
69911;BME280;63555;49.920;17.868;2023-03-11T16:03:45;97581.34;;;2.05;60.97
69911;BME280;63555;49.920;17.868;2023-03-11T16:08:45;97597.59;;;1.94;61.64
69911;BME280;63555;49.920;17.868;2023-03-11T16:13:45;97612.97;;;1.83;62.01
69911;BME280;63555;49.920;17.868;2023-03-11T16:18:46;97619.41;;;1.62;63.16
69911;BME280;63555;49.920;17.868;2023-03-11T16:23:46;97621.06;;;1.33;64.06
69911;BME280;63555;49.920;17.868;2023-03-11T16:28:47;97625.88;;;1.09;64.90
69911;BME280;63555;49.920;17.868;2023-03-11T16:33:48;97634.06;;;0.85;64.77
69911;BME280;63555;49.920;17.868;2023-03-11T16:38:49;97657.75;;;0.63;65.33
69911;BME280;63555;49.920;17.868;2023-03-11T16:43:50;97667.78;;;0.54;65.62
69911;BME280;63555;49.920;17.868;2023-03-11T16:48:51;97682.59;;;0.52;65.66
69911;BME280;63555;49.920;17.868;2023-03-11T16:53:52;97690.28;;;0.53;65.72
69911;BME280;63555;49.920;17.868;2023-03-11T16:58:53;97701.00;;;0.63;65.36
69911;BME280;63555;49.920;17.868;2023-03-11T17:03:54;97711.66;;;0.74;65.42
69911;BME280;63555;49.920;17.868;2023-03-11T17:08:54;97734.59;;;0.82;65.25
69911;BME280;63555;49.920;17.868;2023-03-11T17:13:55;97750.56;;;0.91;65.33
69911;BME280;63555;49.920;17.868;2023-03-11T17:18:55;97752.22;;;0.92;64.80
69911;BME280;63555;49.920;17.868;2023-03-11T17:23:56;97783.53;;;0.89;64.62
69911;BME280;63555;49.920;17.868;2023-03-11T17:28:58;97790.34;;;0.75;64.26
69911;BME280;63555;49.920;17.868;2023-03-11T17:33:58;97794.91;;;0.70;64.95
69911;BME280;63555;49.920;17.868;2023-03-11T17:38:58;97793.31;;;0.67;64.94
69911;BME280;63555;49.920;17.868;2023-03-11T17:43:59;97800.50;;;0.62;65.17
69911;BME280;63555;49.920;17.868;2023-03-11T17:48:59;97805.78;;;0.60;65.34
69911;BME280;63555;49.920;17.868;2023-03-11T17:54:03;97816.97;;;0.61;65.45
69911;BME280;63555;49.920;17.868;2023-03-11T17:59:04;97813.88;;;0.54;65.26
69911;BME280;63555;49.920;17.868;2023-03-11T18:04:04;97821.50;;;0.57;65.19
69911;BME280;63555;49.920;17.868;2023-03-11T18:09:06;97838.34;;;0.49;64.84
69911;BME280;63555;49.920;17.868;2023-03-11T18:14:06;97846.13;;;0.31;64.41
69911;BME280;63555;49.920;17.868;2023-03-11T18:19:06;97853.06;;;0.14;65.07
69911;BME280;63555;49.920;17.868;2023-03-11T18:24:07;97860.69;;;-0.02;65.22
69911;BME280;63555;49.920;17.868;2023-03-11T18:29:07;97865.53;;;-0.13;65.27
69911;BME280;63555;49.920;17.868;2023-03-11T18:34:09;97865.00;;;-0.20;65.29
69911;BME280;63555;49.920;17.868;2023-03-11T18:39:12;97880.41;;;-0.36;65.50
69911;BME280;63555;49.920;17.868;2023-03-11T18:44:12;97887.47;;;-0.39;66.14
69911;BME280;63555;49.920;17.868;2023-03-11T18:49:13;97898.03;;;-0.44;66.00
69911;BME280;63555;49.920;17.868;2023-03-11T18:54:13;97905.75;;;-0.42;66.77
69911;BME280;63555;49.920;17.868;2023-03-11T18:59:14;97908.53;;;-0.28;66.60
69911;BME280;63555;49.920;17.868;2023-03-11T19:04:14;97912.59;;;-0.22;66.48
69911;BME280;63555;49.920;17.868;2023-03-11T19:09:15;97918.78;;;-0.25;66.36
69911;BME280;63555;49.920;17.868;2023-03-11T19:14:17;97920.38;;;-0.41;66.62
69911;BME280;63555;49.920;17.868;2023-03-11T19:19:17;97928.13;;;-0.60;66.65
69911;BME280;63555;49.920;17.868;2023-03-11T19:24:18;97925.66;;;-0.63;67.70
69911;BME280;63555;49.920;17.868;2023-03-11T19:29:18;97935.56;;;-0.52;67.98
69911;BME280;63555;49.920;17.868;2023-03-11T19:34:19;97942.44;;;-0.33;67.69
69911;BME280;63555;49.920;17.868;2023-03-11T19:39:20;97953.97;;;-0.02;67.95
69911;BME280;63555;49.920;17.868;2023-03-11T19:44:21;97970.25;;;0.20;67.76
69911;BME280;63555;49.920;17.868;2023-03-11T19:49:21;97968.69;;;0.35;67.86
69911;BME280;63555;49.920;17.868;2023-03-11T19:54:21;97978.16;;;0.36;67.86
69911;BME280;63555;49.920;17.868;2023-03-11T19:59:22;97983.56;;;0.31;68.00
69911;BME280;63555;49.920;17.868;2023-03-11T20:04:22;97992.31;;;0.29;68.09
69911;BME280;63555;49.920;17.868;2023-03-11T20:09:26;97994.13;;;0.27;68.58
69911;BME280;63555;49.920;17.868;2023-03-11T20:14:26;97997.56;;;0.27;68.39
69911;BME280;63555;49.920;17.868;2023-03-11T20:19:27;97997.16;;;0.18;68.42
69911;BME280;63555;49.920;17.868;2023-03-11T20:24:27;97990.25;;;-0.02;68.14
69911;BME280;63555;49.920;17.868;2023-03-11T20:29:27;98000.13;;;-0.29;68.59
69911;BME280;63555;49.920;17.868;2023-03-11T20:34:28;98007.16;;;-0.51;69.22
69911;BME280;63555;49.920;17.868;2023-03-11T20:39:28;98002.38;;;-0.60;70.15
69911;BME280;63555;49.920;17.868;2023-03-11T20:44:29;98001.41;;;-0.58;70.32
69911;BME280;63555;49.920;17.868;2023-03-11T20:49:30;98003.44;;;-0.46;70.26
69911;BME280;63555;49.920;17.868;2023-03-11T20:54:30;98013.53;;;-0.40;70.51
69911;BME280;63555;49.920;17.868;2023-03-11T20:59:31;98009.53;;;-0.47;70.21
69911;BME280;63555;49.920;17.868;2023-03-11T21:04:31;98012.75;;;-0.42;70.48
69911;BME280;63555;49.920;17.868;2023-03-11T21:09:32;98009.28;;;-0.41;70.47
69911;BME280;63555;49.920;17.868;2023-03-11T21:14:32;98014.13;;;-0.53;70.31
69911;BME280;63555;49.920;17.868;2023-03-11T21:19:32;98022.03;;;-0.77;70.16
69911;BME280;63555;49.920;17.868;2023-03-11T21:24:33;98022.91;;;-0.98;70.82
69911;BME280;63555;49.920;17.868;2023-03-11T21:29:33;98033.41;;;-1.23;70.44
69911;BME280;63555;49.920;17.868;2023-03-11T21:34:33;98028.50;;;-1.51;70.84
69911;BME280;63555;49.920;17.868;2023-03-11T21:39:34;98040.75;;;-1.79;70.92
69911;BME280;63555;49.920;17.868;2023-03-11T21:44:34;98036.34;;;-1.99;71.29
69911;BME280;63555;49.920;17.868;2023-03-11T21:49:35;98034.25;;;-2.13;70.79
69911;BME280;63555;49.920;17.868;2023-03-11T21:54:36;98036.66;;;-2.32;70.98
69911;BME280;63555;49.920;17.868;2023-03-11T21:59:36;98039.69;;;-2.44;71.79
69911;BME280;63555;49.920;17.868;2023-03-11T22:04:37;98050.19;;;-2.48;71.75
69911;BME280;63555;49.920;17.868;2023-03-11T22:09:37;98045.00;;;-2.48;72.20
69911;BME280;63555;49.920;17.868;2023-03-11T22:14:37;98050.63;;;-2.37;72.67
69911;BME280;63555;49.920;17.868;2023-03-11T22:19:38;98052.69;;;-2.22;72.71
69911;BME280;63555;49.920;17.868;2023-03-11T22:24:38;98044.38;;;-2.07;72.74
69911;BME280;63555;49.920;17.868;2023-03-11T22:29:39;98048.31;;;-1.97;73.10
69911;BME280;63555;49.920;17.868;2023-03-11T22:34:39;98055.78;;;-1.89;72.97
69911;BME280;63555;49.920;17.868;2023-03-11T22:39:40;98054.41;;;-1.76;73.31
69911;BME280;63555;49.920;17.868;2023-03-11T22:44:41;98058.34;;;-1.66;73.33
69911;BME280;63555;49.920;17.868;2023-03-11T22:49:41;98057.91;;;-1.53;73.18
69911;BME280;63555;49.920;17.868;2023-03-11T22:54:42;98072.09;;;-1.42;73.05
69911;BME280;63555;49.920;17.868;2023-03-11T22:59:42;98077.03;;;-1.36;73.40
69911;BME280;63555;49.920;17.868;2023-03-11T23:04:44;98079.53;;;-1.34;73.07
69911;BME280;63555;49.920;17.868;2023-03-11T23:09:44;98078.69;;;-1.35;73.29
69911;BME280;63555;49.920;17.868;2023-03-11T23:14:45;98073.72;;;-1.39;72.91
69911;BME280;63555;49.920;17.868;2023-03-11T23:19:46;98083.75;;;-1.53;72.38
69911;BME280;63555;49.920;17.868;2023-03-11T23:24:46;98081.09;;;-1.75;72.25
69911;BME280;63555;49.920;17.868;2023-03-11T23:29:46;98085.38;;;-1.98;71.78
69911;BME280;63555;49.920;17.868;2023-03-11T23:34:47;98087.13;;;-2.23;71.73
69911;BME280;63555;49.920;17.868;2023-03-11T23:39:47;98098.31;;;-2.47;71.72
69911;BME280;63555;49.920;17.868;2023-03-11T23:44:48;98105.81;;;-2.66;72.01
69911;BME280;63555;49.920;17.868;2023-03-11T23:49:48;98110.72;;;-2.85;72.25
69911;BME280;63555;49.920;17.868;2023-03-11T23:54:48;98108.00;;;-3.07;72.07
69911;BME280;63555;49.920;17.868;2023-03-11T23:59:49;98110.59;;;-3.35;72.25
